createdAt,value
2022-10-06T00:01:03.685Z,83.30
2022-10-06T00:03:31.094Z,83.30
2022-10-06T00:06:02.795Z,83.00
2022-10-06T00:08:38.207Z,83.00
2022-10-06T00:11:06.557Z,83.00
2022-10-06T00:13:34.484Z,83.50
2022-10-06T00:16:02.596Z,83.70
2022-10-06T00:18:30.670Z,82.70
2022-10-06T00:21:01.045Z,82.80
2022-10-06T00:23:29.138Z,82.90
2022-10-06T00:25:56.978Z,83.30
2022-10-06T00:28:24.409Z,82.70
2022-10-06T00:30:53.599Z,82.80
2022-10-06T00:33:21.056Z,82.50
2022-10-06T00:35:56.772Z,83.00
2022-10-06T00:38:24.779Z,82.90
2022-10-06T00:40:52.267Z,82.70
2022-10-06T00:43:41.526Z,82.80
2022-10-06T00:46:13.699Z,82.90
2022-10-06T00:48:41.563Z,82.90
2022-10-06T00:51:08.915Z,82.80
2022-10-06T00:53:36.422Z,82.50
2022-10-06T00:56:03.724Z,82.50
2022-10-06T00:58:31.835Z,82.70
2022-10-06T01:00:59.730Z,82.40
2022-10-06T01:03:38.786Z,82.80
2022-10-06T01:06:06.574Z,82.40
2022-10-06T01:08:34.799Z,82.30
2022-10-06T01:11:02.209Z,82.20
2022-10-06T01:13:32.401Z,82.20
2022-10-06T01:16:26.818Z,82.10
2022-10-06T01:18:55.549Z,82.20
2022-10-06T01:21:33.197Z,82.60
2022-10-06T01:24:03.492Z,82.20
2022-10-06T01:26:35.690Z,82.30
2022-10-06T01:29:03.460Z,82.30
2022-10-06T01:31:31.411Z,82.70
2022-10-06T01:33:59.613Z,82.20
2022-10-06T01:36:26.931Z,82.30
2022-10-06T01:38:54.364Z,82.10
2022-10-06T01:41:22.588Z,81.90
2022-10-06T01:43:50.126Z,82.10
2022-10-06T01:46:17.450Z,81.80
2022-10-06T01:48:44.761Z,81.90
2022-10-06T01:51:18.257Z,81.80
2022-10-06T01:53:45.521Z,81.80
2022-10-06T01:56:13.726Z,82.00
2022-10-06T01:58:41.833Z,81.80
2022-10-06T02:01:10.044Z,81.80
2022-10-06T02:03:39.024Z,81.50
2022-10-06T02:06:07.931Z,81.70
2022-10-06T02:08:35.814Z,81.60
2022-10-06T02:11:10.829Z,81.70
2022-10-06T02:13:41.642Z,81.80
2022-10-06T02:16:10.001Z,82.00
2022-10-06T02:18:37.523Z,82.80
2022-10-06T02:21:04.971Z,81.90
2022-10-06T02:23:33.022Z,81.70
2022-10-06T02:26:05.130Z,81.60
2022-10-06T02:28:33.618Z,81.50
2022-10-06T02:31:05.431Z,81.70
2022-10-06T02:33:33.786Z,81.60
2022-10-06T02:36:01.857Z,81.90
2022-10-06T02:38:30.166Z,81.30
2022-10-06T02:40:59.872Z,81.60
2022-10-06T02:43:31.673Z,81.40
2022-10-06T02:46:18.921Z,81.80
2022-10-06T02:48:51.305Z,81.90
2022-10-06T02:51:20.148Z,81.40
2022-10-06T02:53:48.997Z,81.30
2022-10-06T02:56:23.528Z,81.20
2022-10-06T02:58:52.680Z,81.80
2022-10-06T03:01:28.631Z,81.20
2022-10-06T03:03:59.191Z,81.50
2022-10-06T03:06:29.878Z,82.00
2022-10-06T03:09:05.284Z,81.20
2022-10-06T03:11:35.465Z,81.20
2022-10-06T03:14:04.561Z,81.20
2022-10-06T03:16:51.905Z,81.60
2022-10-06T03:19:26.212Z,81.40
2022-10-06T03:21:54.276Z,81.30
2022-10-06T03:24:25.861Z,81.80
2022-10-06T03:26:58.397Z,81.00
2022-10-06T03:29:26.888Z,80.90
2022-10-06T03:31:57.277Z,80.90
2022-10-06T03:34:24.945Z,81.10
2022-10-06T03:36:52.834Z,81.20
2022-10-06T03:39:22.571Z,81.70
2022-10-06T03:41:51.009Z,80.70
2022-10-06T03:44:18.674Z,81.40
2022-10-06T03:46:46.018Z,80.90
2022-10-06T03:49:13.426Z,81.30
2022-10-06T03:51:43.322Z,80.90
2022-10-06T03:54:16.023Z,81.60
2022-10-06T03:56:46.595Z,81.60
2022-10-06T03:59:17.429Z,81.90
2022-10-06T04:01:47.946Z,81.30
2022-10-06T04:04:20.300Z,80.90
2022-10-06T04:06:51.491Z,81.40
2022-10-06T04:09:20.742Z,81.00
2022-10-06T04:11:48.221Z,81.50
2022-10-06T04:14:16.773Z,81.20
2022-10-06T04:16:50.440Z,81.30
2022-10-06T04:19:38.000Z,80.90
2022-10-06T04:22:06.099Z,82.00
2022-10-06T04:24:34.729Z,81.50
2022-10-06T04:27:21.544Z,83.30
2022-10-06T04:29:57.905Z,80.90
2022-10-06T04:32:25.613Z,81.00
2022-10-06T04:34:53.035Z,81.30
2022-10-06T04:37:20.965Z,81.70
2022-10-06T04:39:49.471Z,81.00
2022-10-06T04:42:17.796Z,81.30
2022-10-06T04:44:45.202Z,81.60
2022-10-06T04:47:12.613Z,81.50
2022-10-06T04:49:40.093Z,80.80
2022-10-06T04:52:08.244Z,81.00
2022-10-06T04:54:37.736Z,81.00
2022-10-06T04:57:06.462Z,81.40
2022-10-06T04:59:52.301Z,80.80
2022-10-06T05:02:20.820Z,80.80
2022-10-06T05:04:52.138Z,80.80
2022-10-06T05:07:21.375Z,80.90
2022-10-06T05:09:48.792Z,81.70
2022-10-06T05:12:16.158Z,81.10
2022-10-06T05:14:44.564Z,81.60
2022-10-06T05:17:12.091Z,82.60
2022-10-06T05:19:40.277Z,80.90
2022-10-06T05:22:09.532Z,81.20
2022-10-06T05:24:37.120Z,80.80
2022-10-06T05:27:06.492Z,81.30
2022-10-06T05:29:34.976Z,81.90
2022-10-06T05:32:05.050Z,81.90
2022-10-06T05:34:33.629Z,80.90
2022-10-06T05:37:01.493Z,81.30
2022-10-06T05:39:28.940Z,81.10
2022-10-06T05:41:58.808Z,81.20
2022-10-06T05:44:27.040Z,81.10
2022-10-06T05:46:56.021Z,81.00
2022-10-06T05:49:24.047Z,81.60
2022-10-06T05:51:56.235Z,81.60
2022-10-06T05:54:34.839Z,81.50
2022-10-06T05:57:02.473Z,81.30
2022-10-06T05:59:32.297Z,82.40
2022-10-06T06:02:00.810Z,82.50
2022-10-06T06:04:34.200Z,81.90
2022-10-06T06:07:01.875Z,82.50
2022-10-06T06:09:29.273Z,82.10
2022-10-06T06:12:00.098Z,81.60
2022-10-06T06:15:06.251Z,81.40
2022-10-06T06:17:39.210Z,81.90
2022-10-06T06:20:07.654Z,83.00
2022-10-06T06:22:35.875Z,81.90
2022-10-06T06:25:04.304Z,81.90
2022-10-06T06:27:31.682Z,82.00
2022-10-06T06:29:59.127Z,82.20
2022-10-06T06:32:27.998Z,82.20
2022-10-06T06:34:55.706Z,81.90
2022-10-06T06:37:23.062Z,82.10
2022-10-06T06:39:50.380Z,82.00
2022-10-06T06:42:18.790Z,82.10
2022-10-06T06:44:49.012Z,82.10
2022-10-06T06:47:39.787Z,82.10
2022-10-06T06:50:10.385Z,82.20
2022-10-06T06:52:39.455Z,82.20
2022-10-06T06:55:09.761Z,82.30
2022-10-06T06:57:37.241Z,82.10
2022-10-06T07:00:08.004Z,82.40
2022-10-06T07:02:36.846Z,82.30
2022-10-06T07:05:05.041Z,82.20
2022-10-06T07:07:32.577Z,82.10
2022-10-06T07:10:00.780Z,82.00
2022-10-06T07:12:29.734Z,82.20
2022-10-06T07:15:17.082Z,82.10
2022-10-06T07:18:07.108Z,81.80
2022-10-06T07:20:54.073Z,82.10
2022-10-06T07:23:40.110Z,82.00
2022-10-06T07:26:12.239Z,82.50
2022-10-06T07:28:42.340Z,81.90
2022-10-06T07:31:10.444Z,83.30
2022-10-06T07:33:39.084Z,82.90
2022-10-06T07:36:06.562Z,82.20
2022-10-06T07:38:34.670Z,81.90
2022-10-06T07:43:55.997Z,82.70
2022-10-06T07:46:25.120Z,81.80
2022-10-06T07:49:17.498Z,81.90
2022-10-06T07:51:45.911Z,81.80
2022-10-06T07:54:13.403Z,82.10
2022-10-06T07:56:54.020Z,82.10
2022-10-06T07:59:21.835Z,81.90
2022-10-06T08:01:51.253Z,82.50
2022-10-06T08:04:18.610Z,81.60
2022-10-06T08:06:47.649Z,82.10
2022-10-06T08:09:15.021Z,81.60
2022-10-06T08:11:44.760Z,81.70
2022-10-06T08:14:14.983Z,81.30
2022-10-06T08:16:42.407Z,82.80
2022-10-06T08:19:11.559Z,81.30
2022-10-06T08:21:39.606Z,81.40
2022-10-06T08:24:07.245Z,81.50
2022-10-06T08:26:34.699Z,81.20
2022-10-06T08:29:04.783Z,80.90
2022-10-06T08:31:32.638Z,80.70
2022-10-06T08:34:01.337Z,80.60
2022-10-06T08:36:31.868Z,80.50
2022-10-06T08:39:00.249Z,80.80
2022-10-06T08:41:40.127Z,80.60
2022-10-06T08:44:18.463Z,80.50
2022-10-06T08:47:13.872Z,80.30
2022-10-06T08:49:44.575Z,80.10
2022-10-06T08:52:49.678Z,80.30
2022-10-06T08:55:29.045Z,81.00
2022-10-06T08:58:29.099Z,79.10
2022-10-06T09:01:23.423Z,79.30
2022-10-06T09:03:56.341Z,79.50
2022-10-06T09:06:32.186Z,79.50
2022-10-06T09:09:13.234Z,79.10
2022-10-06T09:11:43.587Z,78.50
2022-10-06T09:14:28.662Z,78.40
2022-10-06T09:17:02.698Z,78.00
2022-10-06T09:19:38.002Z,77.90
2022-10-06T09:22:12.149Z,78.00
2022-10-06T09:24:47.477Z,78.30
2022-10-06T09:27:34.932Z,77.40
2022-10-06T09:30:04.603Z,77.30
2022-10-06T09:32:34.657Z,76.30
2022-10-06T09:35:12.789Z,76.10
2022-10-06T09:38:00.664Z,76.50
2022-10-06T09:40:36.452Z,76.20
2022-10-06T09:43:25.730Z,75.90
2022-10-06T09:45:55.442Z,75.10
2022-10-06T09:48:25.779Z,74.30
2022-10-06T09:51:14.026Z,74.20
2022-10-06T09:54:14.234Z,73.20
2022-10-06T09:56:47.337Z,72.20
2022-10-06T09:59:23.759Z,72.90
2022-10-06T10:01:55.705Z,72.90
2022-10-06T10:04:30.329Z,73.10
2022-10-06T10:07:36.461Z,72.10
2022-10-06T10:10:25.393Z,72.70
2022-10-06T10:12:58.004Z,72.40
2022-10-06T10:15:39.244Z,72.60
2022-10-06T10:18:13.668Z,71.30
2022-10-06T10:20:50.554Z,71.10
2022-10-06T10:23:30.893Z,72.00
2022-10-06T10:26:27.895Z,70.20
2022-10-06T10:29:15.153Z,69.60
2022-10-06T10:31:42.521Z,69.70
2022-10-06T10:34:24.989Z,69.40
2022-10-06T10:37:12.499Z,68.60
2022-10-06T10:39:52.654Z,69.00
2022-10-06T10:42:54.826Z,69.10
2022-10-06T10:45:32.353Z,68.40
2022-10-06T10:48:01.493Z,68.30
2022-10-06T10:50:50.907Z,67.90
2022-10-06T10:53:49.808Z,67.60
2022-10-06T10:56:21.101Z,67.80
2022-10-06T10:58:53.130Z,68.20
2022-10-06T11:01:44.168Z,68.00
2022-10-06T11:04:13.437Z,67.70
2022-10-06T11:07:31.368Z,67.10
2022-10-06T11:10:10.544Z,66.00
2022-10-06T11:12:52.872Z,65.30
2022-10-06T11:16:00.616Z,65.10
2022-10-06T11:18:33.638Z,64.80
2022-10-06T11:21:27.783Z,65.10
2022-10-06T11:24:21.386Z,64.60
2022-10-06T11:27:03.747Z,64.70
2022-10-06T11:29:52.752Z,64.60
2022-10-06T11:33:01.414Z,64.40
2022-10-06T11:35:37.754Z,64.60
2022-10-06T11:38:08.309Z,64.50
2022-10-06T11:40:54.208Z,65.70
2022-10-06T11:43:39.683Z,65.70
2022-10-06T11:46:12.774Z,64.60
2022-10-06T11:48:40.603Z,65.00
2022-10-06T11:51:21.474Z,65.20
2022-10-06T11:53:48.897Z,64.20
2022-10-06T11:56:19.383Z,63.30
2022-10-06T11:58:55.646Z,62.50
2022-10-06T12:01:35.042Z,62.50
2022-10-06T12:04:08.329Z,62.40
2022-10-06T12:06:47.546Z,63.10
2022-10-06T12:09:32.765Z,61.90
2022-10-06T12:12:07.064Z,62.20
2022-10-06T12:16:32.286Z,61.90
2022-10-06T12:18:00.764Z,61.80
2022-10-06T12:20:53.410Z,60.80
2022-10-06T12:23:38.315Z,60.40
2022-10-06T12:26:20.531Z,60.80
2022-10-06T12:28:56.390Z,60.80
2022-10-06T12:31:44.903Z,59.70
2022-10-06T12:34:40.023Z,60.10
2022-10-06T12:37:29.057Z,60.20
2022-10-06T12:40:33.880Z,60.20
2022-10-06T12:43:19.388Z,60.10
2022-10-06T12:45:56.110Z,60.60
2022-10-06T12:48:31.318Z,60.50
2022-10-06T12:51:05.926Z,60.40
2022-10-06T12:53:52.402Z,60.00
2022-10-06T12:56:31.705Z,59.60
2022-10-06T12:59:19.756Z,59.70
2022-10-06T13:01:52.393Z,60.00
2022-10-06T13:04:40.490Z,60.30
2022-10-06T13:07:23.621Z,60.90
2022-10-06T13:10:15.532Z,60.30
2022-10-06T13:12:50.179Z,60.30
2022-10-06T13:15:22.373Z,60.30
2022-10-06T13:18:10.398Z,59.90
2022-10-06T13:20:41.836Z,59.90
2022-10-06T13:23:11.825Z,60.00
2022-10-06T13:25:57.711Z,59.90
2022-10-06T13:28:29.361Z,57.90
2022-10-06T13:31:21.158Z,59.10
2022-10-06T13:34:07.257Z,58.00
2022-10-06T13:36:38.651Z,57.80
2022-10-06T13:39:11.910Z,58.60
2022-10-06T13:42:10.896Z,58.00
2022-10-06T13:44:56.258Z,57.50
2022-10-06T13:47:25.579Z,56.70
2022-10-06T13:50:03.742Z,57.00
2022-10-06T13:52:36.511Z,56.60
2022-10-06T13:55:24.350Z,56.90
2022-10-06T13:58:08.556Z,56.90
2022-10-06T14:00:58.055Z,56.40
2022-10-06T14:03:33.794Z,56.40
2022-10-06T14:06:22.130Z,56.90
2022-10-06T14:08:54.204Z,57.00
2022-10-06T14:11:28.073Z,56.70
2022-10-06T14:14:02.065Z,56.70
2022-10-06T14:16:30.147Z,56.50
2022-10-06T14:19:02.931Z,56.10
2022-10-06T14:21:34.076Z,56.70
2022-10-06T14:24:07.755Z,56.50
2022-10-06T14:26:37.643Z,56.70
2022-10-06T14:29:04.953Z,57.20
2022-10-06T14:31:34.029Z,57.10
2022-10-06T14:34:02.622Z,57.00
2022-10-06T14:36:35.439Z,57.10
2022-10-06T14:39:04.842Z,57.60
2022-10-06T14:41:32.596Z,57.90
2022-10-06T14:44:02.881Z,58.20
2022-10-06T14:46:30.293Z,57.80
2022-10-06T14:48:58.447Z,57.70
2022-10-06T14:51:29.301Z,57.30
2022-10-06T14:53:59.495Z,57.70
2022-10-06T14:56:29.298Z,57.70
2022-10-06T14:58:57.108Z,57.90
2022-10-06T15:01:26.665Z,57.90
2022-10-06T15:03:59.738Z,57.90
2022-10-06T15:06:46.299Z,57.80
2022-10-06T15:09:13.712Z,58.00
2022-10-06T15:11:41.675Z,58.90
2022-10-06T15:14:09.891Z,58.30
2022-10-06T15:16:40.636Z,57.50
2022-10-06T15:19:09.096Z,57.60
2022-10-06T15:21:39.062Z,57.60
2022-10-06T15:24:08.150Z,57.50
2022-10-06T15:26:54.049Z,58.10
2022-10-06T15:29:21.459Z,57.50
2022-10-06T15:31:54.703Z,57.80
2022-10-06T15:34:26.297Z,57.70
2022-10-06T15:36:55.158Z,58.00
2022-10-06T15:39:40.743Z,57.80
2022-10-06T15:42:08.718Z,58.60
2022-10-06T15:44:36.399Z,57.80
2022-10-06T15:47:05.637Z,57.60
2022-10-06T15:49:37.659Z,58.00
2022-10-06T15:52:05.545Z,57.90
2022-10-06T15:54:37.364Z,58.50
2022-10-06T15:57:08.488Z,58.40
2022-10-06T15:59:37.050Z,58.40
2022-10-06T16:02:07.786Z,58.80
2022-10-06T16:04:40.464Z,59.40
2022-10-06T16:07:14.265Z,59.10
2022-10-06T16:09:44.373Z,59.40
2022-10-06T16:12:16.345Z,59.70
2022-10-06T16:14:44.274Z,60.10
2022-10-06T16:17:12.817Z,60.20
2022-10-06T16:19:40.497Z,60.20
2022-10-06T16:22:12.981Z,60.50
2022-10-06T16:24:40.637Z,60.60
2022-10-06T16:27:12.824Z,61.20
2022-10-06T16:29:40.184Z,61.00
2022-10-06T16:32:07.714Z,61.20
2022-10-06T16:34:35.079Z,61.30
2022-10-06T16:37:02.388Z,61.80
2022-10-06T16:39:29.711Z,61.60
2022-10-06T16:41:56.996Z,61.90
2022-10-06T16:44:24.365Z,61.90
2022-10-06T16:46:51.762Z,62.20
2022-10-06T16:49:19.676Z,62.30
2022-10-06T16:51:47.042Z,62.40
2022-10-06T16:54:17.295Z,62.80
2022-10-06T16:56:47.061Z,62.70
2022-10-06T16:59:19.710Z,63.20
2022-10-06T17:01:48.702Z,63.40
2022-10-06T17:04:17.716Z,63.10
2022-10-06T17:06:46.757Z,63.30
2022-10-06T17:09:16.463Z,63.50
2022-10-06T17:11:49.412Z,63.60
2022-10-06T17:14:17.814Z,63.80
2022-10-06T17:16:46.833Z,63.80
2022-10-06T17:19:16.487Z,64.00
2022-10-06T17:21:46.691Z,64.10
2022-10-06T17:24:17.943Z,63.70
2022-10-06T17:26:47.797Z,64.40
2022-10-06T17:29:21.367Z,64.60
2022-10-06T17:31:53.303Z,64.80
2022-10-06T17:34:22.937Z,64.90
2022-10-06T17:36:52.415Z,65.00
2022-10-06T17:39:24.440Z,65.40
2022-10-06T17:41:53.857Z,65.80
2022-10-06T17:44:24.195Z,67.20
2022-10-06T17:46:55.361Z,66.00
2022-10-06T17:49:24.506Z,66.00
2022-10-06T17:51:53.829Z,65.80
2022-10-06T17:54:23.555Z,66.00
2022-10-06T17:56:53.485Z,66.50
2022-10-06T17:59:23.566Z,66.40
2022-10-06T18:01:52.054Z,66.60
2022-10-06T18:04:19.951Z,66.60
2022-10-06T18:06:48.084Z,66.80
2022-10-06T18:09:16.161Z,67.20
2022-10-06T18:12:04.011Z,67.20
2022-10-06T18:14:34.979Z,67.20
2022-10-06T18:17:03.731Z,67.80
2022-10-06T18:19:33.782Z,67.50
2022-10-06T18:22:10.019Z,68.60
2022-10-06T18:24:38.832Z,67.70
2022-10-06T18:27:07.839Z,67.80
2022-10-06T18:29:37.035Z,68.00
2022-10-06T18:32:40.546Z,68.20
2022-10-06T18:37:40.574Z,68.30
2022-10-06T18:40:09.958Z,68.70
2022-10-06T18:42:39.064Z,68.50
2022-10-06T18:45:26.552Z,69.20
2022-10-06T18:48:12.458Z,69.20
2022-10-06T18:50:40.169Z,69.00
2022-10-06T18:53:07.515Z,69.30
2022-10-06T18:55:35.103Z,70.30
2022-10-06T18:58:04.594Z,69.50
2022-10-06T19:00:32.078Z,69.70
2022-10-06T19:02:59.423Z,70.20
2022-10-06T19:05:26.922Z,70.20
2022-10-06T19:07:54.384Z,70.20
2022-10-06T19:10:22.088Z,70.40
2022-10-06T19:12:49.763Z,70.50
2022-10-06T19:15:20.761Z,71.00
2022-10-06T19:17:49.943Z,70.80
2022-10-06T19:20:18.389Z,71.20
2022-10-06T19:22:47.476Z,71.50
2022-10-06T19:25:18.718Z,71.20
2022-10-06T19:27:46.519Z,71.20
2022-10-06T19:30:14.502Z,72.20
2022-10-06T19:32:41.970Z,71.40
2022-10-06T19:35:10.581Z,71.80
2022-10-06T19:37:38.834Z,72.90
2022-10-06T19:40:08.577Z,71.70
2022-10-06T19:42:47.826Z,71.90
2022-10-06T19:45:16.555Z,72.10
2022-10-06T19:47:45.319Z,72.40
2022-10-06T19:50:13.470Z,72.60
2022-10-06T19:52:42.103Z,72.80
2022-10-06T19:55:09.616Z,72.60
2022-10-06T19:57:37.145Z,72.60
2022-10-06T20:00:06.664Z,72.70
2022-10-06T20:02:42.867Z,72.90
2022-10-06T20:05:15.853Z,72.80
2022-10-06T20:07:45.574Z,73.60
2022-10-06T20:10:13.644Z,73.20
2022-10-06T20:12:41.727Z,73.30
2022-10-06T20:15:10.152Z,73.90
2022-10-06T20:17:37.811Z,74.10
2022-10-06T20:20:05.730Z,74.80
2022-10-06T20:22:33.147Z,73.60
2022-10-06T20:25:01.983Z,74.90
2022-10-06T20:27:29.448Z,73.90
2022-10-06T20:29:58.001Z,74.00
2022-10-06T20:32:25.321Z,73.80
2022-10-06T20:34:52.758Z,74.20
2022-10-06T20:37:20.118Z,74.40
2022-10-06T20:40:05.747Z,74.90
2022-10-06T20:42:33.635Z,74.30
2022-10-06T20:45:01.049Z,74.50
2022-10-06T20:47:29.796Z,74.60
2022-10-06T20:49:57.079Z,74.30
2022-10-06T20:52:24.570Z,75.40
2022-10-06T20:54:52.002Z,75.00
2022-10-06T20:57:19.624Z,74.90
2022-10-06T20:59:46.943Z,75.50
2022-10-06T21:02:14.298Z,75.10
2022-10-06T21:04:45.085Z,75.00
2022-10-06T21:07:12.438Z,75.20
2022-10-06T21:09:39.824Z,75.30
2022-10-06T21:12:07.267Z,75.20
2022-10-06T21:14:36.170Z,75.70
2022-10-06T21:17:03.616Z,75.90
2022-10-06T21:19:31.458Z,75.80
2022-10-06T21:21:59.334Z,75.70
2022-10-06T21:24:26.702Z,76.80
2022-10-06T21:26:54.163Z,75.90
2022-10-06T21:29:21.687Z,76.20
2022-10-06T21:31:49.055Z,75.50
2022-10-06T21:34:16.387Z,77.00
2022-10-06T21:36:44.172Z,76.20
2022-10-06T21:39:12.927Z,76.40
2022-10-06T21:41:40.690Z,76.40
2022-10-06T21:44:16.351Z,76.50
2022-10-06T21:46:54.584Z,78.70
2022-10-06T21:49:23.920Z,76.80
2022-10-06T21:51:53.719Z,77.20
2022-10-06T21:54:22.422Z,77.30
2022-10-06T21:56:50.482Z,77.70
2022-10-06T21:59:18.140Z,76.50
2022-10-06T22:01:46.631Z,77.40
2022-10-06T22:04:15.275Z,76.90
2022-10-06T22:06:44.262Z,77.20
2022-10-06T22:09:17.272Z,78.00
2022-10-06T22:11:45.211Z,77.80
2022-10-06T22:14:15.751Z,77.10
2022-10-06T22:16:43.493Z,77.70
2022-10-06T22:19:12.991Z,77.10
2022-10-06T22:21:46.230Z,78.20
2022-10-06T22:24:16.804Z,78.20
2022-10-06T22:26:44.397Z,79.40
2022-10-06T22:29:14.227Z,77.50
2022-10-06T22:31:44.635Z,78.30
2022-10-06T22:34:13.853Z,78.80
2022-10-06T22:36:41.547Z,77.50
2022-10-06T22:39:09.082Z,78.90
2022-10-06T22:41:37.210Z,77.70
2022-10-06T22:44:04.718Z,77.70
2022-10-06T22:46:35.485Z,77.80
2022-10-06T22:49:03.432Z,78.30
2022-10-06T22:51:30.894Z,78.00
2022-10-06T22:53:59.878Z,77.90
2022-10-06T22:56:29.474Z,78.60
2022-10-06T22:58:59.585Z,78.60
2022-10-06T23:01:28.728Z,78.10
2022-10-06T23:03:56.575Z,78.30
2022-10-06T23:06:24.554Z,79.20
2022-10-06T23:08:52.395Z,79.10
2022-10-06T23:11:21.532Z,78.60
2022-10-06T23:13:50.287Z,79.70
2022-10-06T23:16:19.050Z,79.70
2022-10-06T23:18:47.345Z,78.70
2022-10-06T23:21:24.104Z,79.60
2022-10-06T23:23:54.221Z,80.00
2022-10-06T23:26:22.992Z,79.10
2022-10-06T23:28:52.753Z,79.60
2022-10-06T23:31:20.184Z,79.80
2022-10-06T23:33:48.160Z,79.00
2022-10-06T23:36:15.507Z,79.10
2022-10-06T23:38:42.820Z,78.70
2022-10-06T23:41:10.944Z,79.20
2022-10-06T23:43:38.235Z,79.20
2022-10-06T23:46:06.016Z,78.80
2022-10-06T23:48:33.478Z,79.60
2022-10-06T23:51:10.339Z,79.60
2022-10-06T23:53:38.166Z,80.60
2022-10-06T23:56:06.543Z,79.60
2022-10-06T23:58:34.147Z,79.50
